Time;durP1;ratioP1;P1;durP2;ratioP2;P2;SDS_P1;SDS_P2;PMS_P1;PMS_P2;Temp;Humidity;BMP_temperature;BMP_pressure;BME280_temperature;BME280_humidity;BME280_pressure;Samples;Min_cycle;Max_cycle;Signal;HPM_P1;HPM_P2
2022/06/17 00:01:46;;;;;;;3.42;2.63;;;;;;;;;;5139857;27;20130;-57
2022/06/17 00:04:12;;;;;;;5.03;3.08;;;;;;;;;;5138548;27;20106;-56
2022/06/17 00:06:42;;;;;;;6.38;3.75;;;;;;;;;;5141882;27;20058;-57
2022/06/17 00:09:08;;;;;;;3.95;3.55;;;;;;;;;;5140449;27;20047;-56
2022/06/17 00:11:35;;;;;;;8.13;4.38;;;;;;;;;;5139362;27;20058;-56
2022/06/17 00:14:01;;;;;;;5.88;3.63;;;;;;;;;;5141620;27;20066;-56
2022/06/17 00:16:26;;;;;;;3.17;2.80;;;;;;;;;;5140740;27;20073;-55
2022/06/17 00:18:52;;;;;;;31.30;6.22;;;;;;;;;;5121797;27;20469;-56
2022/06/17 00:21:28;;;;;;;6.35;3.53;;;;;;;;;;5139666;27;20042;-56
2022/06/17 00:23:54;;;;;;;13.32;3.42;;;;;;;;;;5139409;27;20129;-56
2022/06/17 00:26:19;;;;;;;6.60;3.85;;;;;;;;;;5135155;27;20143;-56
2022/06/17 00:28:45;;;;;;;8.43;3.90;;;;;;;;;;5140041;27;20039;-57
2022/06/17 00:31:10;;;;;;;11.02;4.00;;;;;;;;;;5140708;27;20042;-56
2022/06/17 00:33:35;;;;;;;4.50;2.47;;;;;;;;;;5135825;27;20088;-56
2022/06/17 00:36:01;;;;;;;12.02;3.25;;;;;;;;;;5140387;27;20186;-56
2022/06/17 00:38:29;;;;;;;12.13;3.05;;;;;;;;;;5139977;27;20042;-56
2022/06/17 00:40:56;;;;;;;4.07;3.10;;;;;;;;;;5137558;27;20066;-57
2022/06/17 00:43:24;;;;;;;8.93;2.47;;;;;;;;;;5140443;27;20517;-57
2022/06/17 00:45:53;;;;;;;4.13;2.38;;;;;;;;;;5141114;27;20047;-57
2022/06/17 00:48:21;;;;;;;4.68;2.30;;;;;;;;;;5140637;27;20498;-57
2022/06/17 00:50:57;;;;;;;8.60;3.55;;;;;;;;;;5142964;27;20565;-57
2022/06/17 00:53:43;;;;;;;4.13;2.20;;;;;;;;;;5139838;27;20058;-57
2022/06/17 00:56:12;;;;;;;3.10;2.30;;;;;;;;;;5140375;27;20038;-57
2022/06/17 00:58:55;;;;;;;6.47;2.40;;;;;;;;;;5137045;27;20055;-57
2022/06/17 01:01:22;;;;;;;4.15;2.80;;;;;;;;;;5138951;27;20043;-57
2022/06/17 01:03:49;;;;;;;5.05;3.03;;;;;;;;;;5138727;27;20046;-57
2022/06/17 01:06:17;;;;;;;6.25;2.75;;;;;;;;;;5138001;27;20054;-57
2022/06/17 01:11:31;;;;;;;4.22;3.03;;;;;;;;;;5144038;27;20554;-57
2022/06/17 01:13:56;;;;;;;4.40;2.58;;;;;;;;;;5141229;27;20079;-57
2022/06/17 01:16:25;;;;;;;6.28;2.50;;;;;;;;;;5138969;27;20046;-57
2022/06/17 01:18:50;;;;;;;11.15;2.78;;;;;;;;;;5137877;27;20095;-57
2022/06/17 01:21:28;;;;;;;3.80;2.70;;;;;;;;;;5138466;27;20047;-57
2022/06/17 01:23:54;;;;;;;8.57;2.60;;;;;;;;;;5137621;27;20445;-57
2022/06/17 01:26:19;;;;;;;4.68;2.50;;;;;;;;;;5134221;27;20134;-56
2022/06/17 01:28:45;;;;;;;5.68;3.47;;;;;;;;;;5142405;27;20063;-57
2022/06/17 01:31:11;;;;;;;8.10;3.88;;;;;;;;;;5137422;27;20360;-56
2022/06/17 01:33:38;;;;;;;3.58;3.20;;;;;;;;;;5138534;27;20049;-56
2022/06/17 01:36:05;;;;;;;4.55;2.70;;;;;;;;;;5139332;27;20034;-56
2022/06/17 01:38:31;;;;;;;5.32;3.92;;;;;;;;;;5137498;27;20034;-56
2022/06/17 01:40:58;;;;;;;5.55;3.80;;;;;;;;;;5136150;27;20111;-56
2022/06/17 01:43:26;;;;;;;10.77;4.15;;;;;;;;;;5136398;27;20485;-56
2022/06/17 01:46:03;;;;;;;5.93;3.10;;;;;;;;;;5138331;27;20042;-56
2022/06/17 01:48:32;;;;;;;9.13;3.25;;;;;;;;;;5137928;27;20436;-56
2022/06/17 01:50:58;;;;;;;6.88;3.70;;;;;;;;;;5142000;27;20130;-55
2022/06/17 01:53:27;;;;;;;5.18;2.35;;;;;;;;;;5138912;27;20091;-56
2022/06/17 01:55:56;;;;;;;9.23;3.40;;;;;;;;;;5137741;27;20047;-56
2022/06/17 01:58:42;;;;;;;2.78;1.77;;;;;;;;;;5140053;27;20042;-56
2022/06/17 02:01:08;;;;;;;5.20;3.85;;;;;;;;;;5122102;27;20462;-56
2022/06/17 02:03:39;;;;;;;4.72;2.95;;;;;;;;;;5137342;27;20035;-57
2022/06/17 02:06:07;;;;;;;24.13;3.35;;;;;;;;;;5143238;27;20051;-56
2022/06/17 02:08:32;;;;;;;6.05;3.00;;;;;;;;;;5141335;27;20127;-57
2022/06/17 02:10:58;;;;;;;4.38;2.55;;;;;;;;;;5144364;27;20154;-56
2022/06/17 02:13:24;;;;;;;4.95;3.42;;;;;;;;;;5139065;27;20039;-56
2022/06/17 02:15:49;;;;;;;2.38;1.95;;;;;;;;;;5140028;27;20065;-56
2022/06/17 02:18:15;;;;;;;5.75;3.35;;;;;;;;;;5141484;27;20532;-56
2022/06/17 02:20:41;;;;;;;7.32;3.22;;;;;;;;;;5141444;27;20129;-56
2022/06/17 02:23:07;;;;;;;8.60;2.88;;;;;;;;;;5133108;27;20047;-56
2022/06/17 02:25:42;;;;;;;3.63;3.20;;;;;;;;;;5142278;27;20154;-56
2022/06/17 02:28:08;;;;;;;10.57;2.60;;;;;;;;;;5144207;27;20043;-57
2022/06/17 02:30:34;;;;;;;6.00;3.95;;;;;;;;;;5142565;27;20042;-57
2022/06/17 02:33:01;;;;;;;2.83;2.22;;;;;;;;;;5144020;27;20133;-56
2022/06/17 02:35:26;;;;;;;2.35;2.13;;;;;;;;;;5142559;27;20074;-56
2022/06/17 02:37:52;;;;;;;4.10;2.33;;;;;;;;;;5140209;27;20584;-56
2022/06/17 02:40:38;;;;;;;5.03;2.85;;;;;;;;;;5140967;27;20043;-56
2022/06/17 02:43:05;;;;;;;3.80;3.15;;;;;;;;;;5140008;27;20047;-56
2022/06/17 02:45:32;;;;;;;7.45;3.83;;;;;;;;;;5139519;27;20497;-56
2022/06/17 02:47:58;;;;;;;5.30;3.40;;;;;;;;;;5141200;27;20060;-56
2022/06/17 02:50:24;;;;;;;3.92;2.58;;;;;;;;;;5139891;27;20039;-56
2022/06/17 02:52:51;;;;;;;4.88;3.53;;;;;;;;;;5140900;27;20405;-56
2022/06/17 02:55:25;;;;;;;8.63;3.13;;;;;;;;;;5143381;27;20039;-56
2022/06/17 02:57:52;;;;;;;3.70;2.83;;;;;;;;;;5141036;27;20329;-57
2022/06/17 03:00:20;;;;;;;7.95;3.25;;;;;;;;;;5138597;27;20463;-56
2022/06/17 03:02:49;;;;;;;5.35;2.67;;;;;;;;;;5140689;27;20072;-56
2022/06/17 03:05:36;;;;;;;5.53;3.42;;;;;;;;;;5140713;27;20182;-56
2022/06/17 03:08:06;;;;;;;7.28;2.70;;;;;;;;;;5139528;27;20055;-57
2022/06/17 03:10:35;;;;;;;3.45;2.33;;;;;;;;;;5143137;27;20042;-56
2022/06/17 03:13:04;;;;;;;2.55;2.00;;;;;;;;;;5138431;27;20188;-56
2022/06/17 03:15:29;;;;;;;3.30;1.85;;;;;;;;;;5141450;27;20055;-56
2022/06/17 03:17:55;;;;;;;3.55;2.65;;;;;;;;;;5140083;27;20039;-56
2022/06/17 03:20:24;;;;;;;5.78;2.83;;;;;;;;;;5138954;27;20043;-56
2022/06/17 03:22:54;;;;;;;3.72;2.80;;;;;;;;;;5139161;27;20047;-56
2022/06/17 03:25:23;;;;;;;3.88;3.22;;;;;;;;;;5139282;27;20054;-56
2022/06/17 03:27:50;;;;;;;5.43;3.35;;;;;;;;;;5140184;27;20091;-56
2022/06/17 03:30:21;;;;;;;6.78;4.07;;;;;;;;;;5142017;27;20043;-56
2022/06/17 03:32:49;;;;;;;4.50;2.65;;;;;;;;;;5143366;27;20047;-56
2022/06/17 03:35:21;;;;;;;4.68;3.35;;;;;;;;;;5141474;27;20701;-56
2022/06/17 03:37:52;;;;;;;8.35;2.50;;;;;;;;;;5142286;27;20035;-56
2022/06/17 03:40:21;;;;;;;6.70;1.88;;;;;;;;;;5141905;27;20054;-56
2022/06/17 03:42:56;;;;;;;9.80;2.75;;;;;;;;;;5139134;27;20037;-56
2022/06/17 03:45:25;;;;;;;10.20;3.17;;;;;;;;;;5141741;27;20050;-56
2022/06/17 03:48:01;;;;;;;3.30;2.90;;;;;;;;;;5140748;27;20720;-56
2022/06/17 03:50:27;;;;;;;5.40;2.70;;;;;;;;;;5142247;27;20034;-56
2022/06/17 03:53:01;;;;;;;3.15;2.58;;;;;;;;;;5142961;27;20129;-57
2022/06/17 03:55:27;;;;;;;5.45;3.25;;;;;;;;;;5141263;27;20067;-56
2022/06/17 03:57:54;;;;;;;16.55;3.78;;;;;;;;;;5140578;27;20074;-56
2022/06/17 04:00:23;;;;;;;11.50;2.67;;;;;;;;;;5139040;27;20059;-56
2022/06/17 04:02:49;;;;;;;12.63;3.50;;;;;;;;;;5141662;27;20047;-56
2022/06/17 04:05:15;;;;;;;2.65;2.03;;;;;;;;;;5143254;27;20042;-56
2022/06/17 04:07:41;;;;;;;7.07;3.15;;;;;;;;;;5139966;27;20045;-56
2022/06/17 04:10:06;;;;;;;8.80;7.88;;;;;;;;;;5140305;27;20118;-56
2022/06/17 04:12:32;;;;;;;8.10;4.38;;;;;;;;;;5139632;27;20077;-57
2022/06/17 04:14:57;;;;;;;13.70;5.53;;;;;;;;;;5142886;27;20493;-56
2022/06/17 04:17:34;;;;;;;6.28;4.55;;;;;;;;;;5140967;27;20616;-56
2022/06/17 04:20:14;;;;;;;8.52;3.20;;;;;;;;;;5138946;27;20043;-57
2022/06/17 04:22:40;;;;;;;9.77;3.88;;;;;;;;;;5141768;27;20043;-57
2022/06/17 04:25:07;;;;;;;8.13;3.50;;;;;;;;;;5142827;27;20465;-56
2022/06/17 04:30:19;;;;;;;4.47;2.78;;;;;;;;;;5141282;27;20083;-57
2022/06/17 04:32:47;;;;;;;4.13;2.50;;;;;;;;;;5138828;27;20413;-56
2022/06/17 04:35:13;;;;;;;8.95;2.97;;;;;;;;;;5138336;27;20054;-57
2022/06/17 04:37:39;;;;;;;9.10;3.53;;;;;;;;;;5140230;27;20042;-57
2022/06/17 04:40:08;;;;;;;5.82;3.78;;;;;;;;;;5137039;27;20046;-57
2022/06/17 04:42:40;;;;;;;2.92;1.88;;;;;;;;;;5140527;27;20058;-57
2022/06/17 04:45:15;;;;;;;12.07;2.10;;;;;;;;;;5137520;27;20061;-57
2022/06/17 04:47:41;;;;;;;5.13;2.75;;;;;;;;;;5137453;27;20121;-57
2022/06/17 04:50:10;;;;;;;6.93;3.42;;;;;;;;;;5138784;27;20573;-57
2022/06/17 04:52:38;;;;;;;10.17;3.57;;;;;;;;;;5140210;27;20076;-57
2022/06/17 04:55:06;;;;;;;9.35;2.55;;;;;;;;;;5139733;27;20039;-57
2022/06/17 04:57:31;;;;;;;9.90;3.97;;;;;;;;;;5143029;27;20043;-57
2022/06/17 04:59:58;;;;;;;11.18;2.88;;;;;;;;;;5136155;27;20062;-57
2022/06/17 05:02:25;;;;;;;5.15;3.53;;;;;;;;;;5138214;27;20031;-57
2022/06/17 05:04:52;;;;;;;3.53;2.83;;;;;;;;;;5138344;27;20035;-57
2022/06/17 05:07:18;;;;;;;5.60;3.35;;;;;;;;;;5138686;27;20502;-57
2022/06/17 05:09:49;;;;;;;8.73;3.17;;;;;;;;;;5139033;27;20095;-57
2022/06/17 05:12:18;;;;;;;36.50;7.45;;;;;;;;;;5134413;27;20074;-57
2022/06/17 05:14:46;;;;;;;20.70;5.50;;;;;;;;;;5139894;27;20047;-57
2022/06/17 05:17:11;;;;;;;13.38;4.47;;;;;;;;;;5141106;27;20092;-57
2022/06/17 05:19:36;;;;;;;7.00;2.85;;;;;;;;;;5140365;27;20038;-57
2022/06/17 05:22:12;;;;;;;5.22;3.95;;;;;;;;;;5138647;27;20509;-57
2022/06/17 05:24:37;;;;;;;46.55;3.92;;;;;;;;;;5139011;27;20047;-57
2022/06/17 05:27:03;;;;;;;22.75;6.65;;;;;;;;;;5138174;27;20555;-57
2022/06/17 05:29:28;;;;;;;8.82;6.65;;;;;;;;;;5139021;27;20035;-57
2022/06/17 05:31:54;;;;;;;6.25;4.13;;;;;;;;;;5137800;27;20090;-57
2022/06/17 05:34:19;;;;;;;7.40;4.40;;;;;;;;;;5137642;27;20051;-56
2022/06/17 05:36:45;;;;;;;10.50;5.68;;;;;;;;;;5139311;27;20467;-56
2022/06/17 05:39:10;;;;;;;30.17;7.15;;;;;;;;;;5139208;27;20410;-57
2022/06/17 05:41:35;;;;;;;12.20;5.13;;;;;;;;;;5139199;27;20056;-58
2022/06/17 05:44:01;;;;;;;8.50;4.82;;;;;;;;;;5136181;27;20046;-57
2022/06/17 05:46:26;;;;;;;52.15;7.55;;;;;;;;;;5138973;27;20058;-56
2022/06/17 05:48:51;;;;;;;12.93;5.00;;;;;;;;;;5137696;27;20509;-56
2022/06/17 05:51:17;;;;;;;15.90;6.90;;;;;;;;;;5139731;27;20493;-56
2022/06/17 05:53:42;;;;;;;12.63;5.35;;;;;;;;;;5137801;27;20047;-57
2022/06/17 05:56:08;;;;;;;19.02;6.22;;;;;;;;;;5139475;27;20053;-57
2022/06/17 05:58:33;;;;;;;21.23;5.18;;;;;;;;;;5136537;27;20053;-57
2022/06/17 06:00:58;;;;;;;10.52;5.82;;;;;;;;;;5137702;27;20471;-57
2022/06/17 06:03:25;;;;;;;13.90;5.75;;;;;;;;;;5133898;27;20456;-57
2022/06/17 06:05:51;;;;;;;5.40;3.75;;;;;;;;;;5134704;27;20035;-56
2022/06/17 06:08:16;;;;;;;9.93;5.70;;;;;;;;;;5136782;27;20096;-56
2022/06/17 06:10:43;;;;;;;14.00;4.72;;;;;;;;;;5138996;27;20105;-56
2022/06/17 06:13:13;;;;;;;11.95;5.35;;;;;;;;;;5137260;27;20042;-56
2022/06/17 06:15:42;;;;;;;17.58;4.60;;;;;;;;;;5135828;27;20089;-56
2022/06/17 06:18:12;;;;;;;19.83;6.78;;;;;;;;;;5138839;27;20450;-59
2022/06/17 06:20:37;;;;;;;28.27;9.73;;;;;;;;;;5136702;27;20036;-56
2022/06/17 06:23:03;;;;;;;43.28;14.00;;;;;;;;;;5140042;27;20066;-57
2022/06/17 06:25:28;;;;;;;68.75;18.20;;;;;;;;;;5138803;27;20050;-57
2022/06/17 06:27:54;;;;;;;13.63;6.10;;;;;;;;;;5138705;27;20545;-56
2022/06/17 06:30:24;;;;;;;42.33;7.93;;;;;;;;;;5134897;27;20584;-57
2022/06/17 06:32:50;;;;;;;11.40;6.35;;;;;;;;;;5139450;27;20046;-57
2022/06/17 06:35:16;;;;;;;23.20;6.60;;;;;;;;;;5140380;27;20115;-58
2022/06/17 06:37:41;;;;;;;33.20;8.40;;;;;;;;;;5139575;27;20039;-57
2022/06/17 06:40:07;;;;;;;28.98;8.52;;;;;;;;;;5136008;27;20051;-58
2022/06/17 06:42:32;;;;;;;12.55;6.82;;;;;;;;;;5139935;27;20046;-57
2022/06/17 06:44:57;;;;;;;34.10;6.82;;;;;;;;;;5137441;27;20766;-58
2022/06/17 06:47:23;;;;;;;33.25;8.70;;;;;;;;;;5138812;27;20301;-58
2022/06/17 06:49:48;;;;;;;44.72;6.45;;;;;;;;;;5135401;27;20057;-58
2022/06/17 06:52:13;;;;;;;31.83;7.80;;;;;;;;;;5142038;27;20050;-57
2022/06/17 06:54:39;;;;;;;8.88;5.82;;;;;;;;;;5139757;27;20099;-58
2022/06/17 06:57:04;;;;;;;18.90;7.00;;;;;;;;;;5144787;27;20099;-58
2022/06/17 06:59:29;;;;;;;24.17;6.88;;;;;;;;;;5140406;27;20405;-59
2022/06/17 07:01:55;;;;;;;25.75;9.65;;;;;;;;;;5142392;27;20026;-58
2022/06/17 07:04:21;;;;;;;11.95;5.18;;;;;;;;;;5140073;27;20050;-58
2022/06/17 07:06:47;;;;;;;14.50;6.88;;;;;;;;;;5140091;27;20490;-58
2022/06/17 07:09:12;;;;;;;18.77;10.15;;;;;;;;;;5141159;27;20102;-57
2022/06/17 07:11:38;;;;;;;16.60;11.00;;;;;;;;;;5141638;27;20446;-58
2022/06/17 07:14:04;;;;;;;22.20;14.35;;;;;;;;;;5139556;27;20421;-57
2022/06/17 07:16:29;;;;;;;18.85;9.65;;;;;;;;;;5141232;27;20618;-57
2022/06/17 07:18:54;;;;;;;13.85;8.02;;;;;;;;;;5142402;27;20047;-57
2022/06/17 07:21:20;;;;;;;41.55;8.63;;;;;;;;;;5139320;27;20043;-43
2022/06/17 07:23:45;;;;;;;18.90;7.25;;;;;;;;;;5139388;27;20039;-40
2022/06/17 07:26:19;;;;;;;17.55;7.10;;;;;;;;;;5131613;27;20469;-40
2022/06/17 07:28:48;;;;;;;11.95;9.75;;;;;;;;;;5138164;27;20502;-40
2022/06/17 07:31:14;;;;;;;18.50;9.25;;;;;;;;;;5141953;27;20118;-42
2022/06/17 07:33:39;;;;;;;14.25;6.22;;;;;;;;;;5121041;27;20075;-39
2022/06/17 07:36:06;;;;;;;15.35;5.57;;;;;;;;;;5139689;27;20529;-42
2022/06/17 07:41:18;;;;;;;16.10;6.85;;;;;;;;;;5139634;27;20062;-42
2022/06/17 07:43:44;;;;;;;30.02;9.63;;;;;;;;;;5142291;27;20118;-41
2022/06/17 07:46:10;;;;;;;15.95;7.28;;;;;;;;;;5141418;27;20027;-40
2022/06/17 07:48:36;;;;;;;16.45;6.78;;;;;;;;;;5138706;27;20050;-40
2022/06/17 07:51:01;;;;;;;12.15;4.25;;;;;;;;;;5139766;27;20047;-40
2022/06/17 07:53:28;;;;;;;26.35;8.32;;;;;;;;;;5139601;27;20054;-40
2022/06/17 07:55:53;;;;;;;17.30;4.32;;;;;;;;;;5143542;27;20099;-42
2022/06/17 07:58:19;;;;;;;34.83;7.03;;;;;;;;;;5143021;27;20134;-39
2022/06/17 08:00:45;;;;;;;10.20;6.90;;;;;;;;;;5142294;27;20050;-45
2022/06/17 08:03:12;;;;;;;9.77;4.03;;;;;;;;;;5139518;27;20039;-42
2022/06/17 08:05:39;;;;;;;15.07;5.50;;;;;;;;;;5137793;27;20049;-41
2022/06/17 08:08:07;;;;;;;5.75;3.60;;;;;;;;;;5140926;27;20514;-39
2022/06/17 08:10:33;;;;;;;21.77;9.82;;;;;;;;;;5140953;27;20083;-39
2022/06/17 08:12:59;;;;;;;11.95;8.30;;;;;;;;;;5143048;27;20066;-40
2022/06/17 08:15:24;;;;;;;8.93;3.40;;;;;;;;;;5139945;27;20042;-42
2022/06/17 08:17:50;;;;;;;5.15;2.03;;;;;;;;;;5139609;27;20050;-39
2022/06/17 08:20:16;;;;;;;6.60;3.88;;;;;;;;;;5142301;27;20141;-41
2022/06/17 08:22:42;;;;;;;10.13;3.53;;;;;;;;;;5136654;27;20485;-42
2022/06/17 08:25:08;;;;;;;14.73;4.20;;;;;;;;;;5137485;27;20045;-41
2022/06/17 08:27:40;;;;;;;19.15;5.35;;;;;;;;;;5137962;27;20049;-42
2022/06/17 08:30:06;;;;;;;20.90;5.18;;;;;;;;;;5140235;27;20042;-40
2022/06/17 08:32:46;;;;;;;25.63;5.05;;;;;;;;;;5134251;27;20536;-41
2022/06/17 08:35:12;;;;;;;5.55;3.65;;;;;;;;;;5136370;27;20042;-42
2022/06/17 08:37:38;;;;;;;2.15;1.45;;;;;;;;;;5138627;27;20035;-43
2022/06/17 08:40:26;;;;;;;6.28;2.92;;;;;;;;;;5140636;27;20050;-41
2022/06/17 08:43:00;;;;;;;10.45;1.60;;;;;;;;;;5128554;27;20053;-43
2022/06/17 08:45:40;;;;;;;3.47;1.60;;;;;;;;;;5138829;27;20051;-41
2022/06/17 08:48:24;;;;;;;2.47;1.85;;;;;;;;;;5139709;27;20118;-42
2022/06/17 08:50:52;;;;;;;5.45;2.22;;;;;;;;;;5137959;27;20473;-39
2022/06/17 08:53:21;;;;;;;6.80;2.78;;;;;;;;;;5140080;27;20050;-42
2022/06/17 08:56:07;;;;;;;3.30;1.75;;;;;;;;;;5139307;27;20074;-40
2022/06/17 08:58:39;;;;;;;1.48;1.15;;;;;;;;;;5117833;27;20061;-41
2022/06/17 09:01:13;;;;;;;5.75;2.45;;;;;;;;;;5136101;27;20051;-43
2022/06/17 09:03:44;;;;;;;3.33;1.85;;;;;;;;;;5139767;27;20057;-40
2022/06/17 09:06:25;;;;;;;1.98;1.17;;;;;;;;;;5137480;27;20046;-42
2022/06/17 09:09:17;;;;;;;10.18;3.40;;;;;;;;;;5140273;27;20139;-39
2022/06/17 09:12:01;;;;;;;5.40;1.50;;;;;;;;;;5139374;27;20489;-42
2022/06/17 09:14:45;;;;;;;2.83;1.35;;;;;;;;;;5139364;27;20043;-42
2022/06/17 09:17:25;;;;;;;4.95;1.90;;;;;;;;;;5138144;27;20046;-41
2022/06/17 09:19:53;;;;;;;5.93;2.87;;;;;;;;;;5138955;27;20173;-40
2022/06/17 09:22:30;;;;;;;4.45;1.17;;;;;;;;;;5138958;27;20137;-41
2022/06/17 09:24:59;;;;;;;2.22;1.48;;;;;;;;;;5138796;27;20137;-40
2022/06/17 09:27:30;;;;;;;2.40;1.35;;;;;;;;;;5139823;27;20035;-43
2022/06/17 09:29:55;;;;;;;3.17;1.55;;;;;;;;;;5123724;27;20133;-39
2022/06/17 09:32:24;;;;;;;7.60;2.40;;;;;;;;;;5139596;27;20122;-46
2022/06/17 09:34:56;;;;;;;10.15;2.33;;;;;;;;;;5136993;27;20477;-40
2022/06/17 09:37:25;;;;;;;3.80;1.48;;;;;;;;;;5139635;27;20035;-39
2022/06/17 09:39:55;;;;;;;492.42;92.97;;;;;;;;;;5137702;27;20138;-41
2022/06/17 09:42:39;;;;;;;68.18;12.93;;;;;;;;;;5139623;27;20050;-40
2022/06/17 09:45:08;;;;;;;15.13;2.35;;;;;;;;;;5141394;27;20038;-41
2022/06/17 09:47:40;;;;;;;31.17;3.97;;;;;;;;;;5139127;27;20073;-43
2022/06/17 09:50:11;;;;;;;8.05;3.42;;;;;;;;;;5138334;27;20097;-42
2022/06/17 09:52:40;;;;;;;4.43;1.55;;;;;;;;;;5139904;27;20042;-42
2022/06/17 09:55:09;;;;;;;3.70;1.00;;;;;;;;;;5140881;27;20055;-40
2022/06/17 09:57:58;;;;;;;2.75;1.70;;;;;;;;;;5136463;27;20549;-41
2022/06/17 10:00:25;;;;;;;4.28;1.10;;;;;;;;;;5137467;27;20045;-41
2022/06/17 10:03:01;;;;;;;3.22;2.10;;;;;;;;;;5136790;27;20087;-42
2022/06/17 10:05:59;;;;;;;5.97;2.05;;;;;;;;;;5120426;27;20047;-40
2022/06/17 10:08:27;;;;;;;2.28;1.50;;;;;;;;;;5095569;27;20050;-42
2022/06/17 10:10:52;;;;;;;2.13;1.10;;;;;;;;;;5138843;27;20161;-41
2022/06/17 10:13:18;;;;;;;6.80;1.80;;;;;;;;;;5139599;27;20143;-43
2022/06/17 10:18:31;;;;;;;2.00;1.20;;;;;;;;;;5139772;27;20584;-40
2022/06/17 10:18:37;;;;;;;10.45;1.92;;;;;;;;;;5137685;27;20430;-42
2022/06/17 10:21:05;;;;;;;2.22;1.05;;;;;;;;;;5136139;27;20139;-43
2022/06/17 10:23:40;;;;;;;1.70;1.40;;;;;;;;;;5140517;27;20160;-40
2022/06/17 10:26:08;;;;;;;7.88;1.38;;;;;;;;;;5140143;27;20043;-39
2022/06/17 10:28:46;;;;;;;2.92;1.10;;;;;;;;;;5141600;27;20552;-40
2022/06/17 10:31:24;;;;;;;3.28;1.52;;;;;;;;;;5129590;27;20450;-39
2022/06/17 10:33:49;;;;;;;36.03;4.25;;;;;;;;;;5142490;27;20322;-39
2022/06/17 10:36:15;;;;;;;2.72;2.00;;;;;;;;;;5142078;27;20588;-39
2022/06/17 10:38:46;;;;;;;2.88;1.40;;;;;;;;;;5141451;27;20047;-39
2022/06/17 10:41:12;;;;;;;3.20;1.42;;;;;;;;;;5141862;27;20035;-39
2022/06/17 10:43:41;;;;;;;1.38;0.95;;;;;;;;;;5142410;27;20478;-40
2022/06/17 10:46:13;;;;;;;14.03;1.57;;;;;;;;;;5142317;27;20046;-46
2022/06/17 10:48:47;;;;;;;5.82;1.27;;;;;;;;;;5139031;27;20784;-39
2022/06/17 10:51:12;;;;;;;2.13;1.27;;;;;;;;;;5134821;27;20524;-40
2022/06/17 10:53:58;;;;;;;11.20;3.28;;;;;;;;;;5140036;27;20065;-39
2022/06/17 10:56:30;;;;;;;1.35;1.00;;;;;;;;;;5143308;27;20047;-42
2022/06/17 10:59:10;;;;;;;2.05;0.98;;;;;;;;;;5143076;27;20073;-41
2022/06/17 11:01:45;;;;;;;8.82;3.35;;;;;;;;;;5140887;27;20126;-40
2022/06/17 11:04:12;;;;;;;2.05;1.33;;;;;;;;;;5134549;27;20066;-39
2022/06/17 11:06:45;;;;;;;11.65;1.92;;;;;;;;;;5137477;27;20065;-40
2022/06/17 11:09:16;;;;;;;4.85;1.95;;;;;;;;;;5140226;27;20046;-43
2022/06/17 11:12:03;;;;;;;2.85;0.73;;;;;;;;;;5140990;27;20074;-39
2022/06/17 11:14:40;;;;;;;2.50;1.17;;;;;;;;;;5140257;27;20079;-39
2022/06/17 11:17:11;;;;;;;1.27;0.90;;;;;;;;;;5138917;27;20037;-39
2022/06/17 11:19:37;;;;;;;1.48;0.68;;;;;;;;;;5138450;27;20055;-40
2022/06/17 11:22:03;;;;;;;1.70;1.10;;;;;;;;;;5141546;27;20054;-40
2022/06/17 11:24:34;;;;;;;15.25;7.97;;;;;;;;;;5142904;27;20051;-39
2022/06/17 11:27:05;;;;;;;2.58;0.90;;;;;;;;;;5143442;27;20070;-59
2022/06/17 11:29:51;;;;;;;2.45;1.05;;;;;;;;;;5136239;27;20511;-59
2022/06/17 11:32:19;;;;;;;7.25;3.33;;;;;;;;;;5142612;27;20046;-59
2022/06/17 11:34:49;;;;;;;29.23;3.15;;;;;;;;;;5137704;27;20039;-59
2022/06/17 11:37:14;;;;;;;;;;;;;;;;;;5143014;27;20030;-60
2022/06/17 11:39:40;;;;;;;11.73;2.17;;;;;;;;;;5142877;27;19940;-58
2022/06/17 11:42:24;;;;;;;1.05;0.57;;;;;;;;;;5143184;27;20088;-59
2022/06/17 11:44:54;;;;;;;10.50;2.45;;;;;;;;;;5141799;27;20143;-60
2022/06/17 11:47:21;;;;;;;0.40;0.30;;;;;;;;;;5139735;27;20051;-58
2022/06/17 11:49:47;;;;;;;7.78;1.25;;;;;;;;;;5136480;27;20405;-58
2022/06/17 11:52:24;;;;;;;2.08;1.27;;;;;;;;;;5141558;27;20077;-58
2022/06/17 11:54:52;;;;;;;0.80;0.50;;;;;;;;;;5143159;27;20054;-58
2022/06/17 11:57:24;;;;;;;14.15;1.38;;;;;;;;;;5143970;27;20489;-58
2022/06/17 11:59:52;;;;;;;3.15;1.30;;;;;;;;;;5140068;27;20596;-58
2022/06/17 12:02:18;;;;;;;2.25;1.10;;;;;;;;;;5140654;27;20050;-58
2022/06/17 12:04:51;;;;;;;21.50;4.70;;;;;;;;;;5139446;27;20038;-58
2022/06/17 12:07:22;;;;;;;3.08;1.63;;;;;;;;;;5142343;27;20047;-59
2022/06/17 12:09:49;;;;;;;4.32;0.70;;;;;;;;;;5141301;27;20058;-59
2022/06/17 12:12:15;;;;;;;1.45;0.50;;;;;;;;;;5137626;27;20039;-59
2022/06/17 12:14:46;;;;;;;1.42;0.70;;;;;;;;;;5142337;27;20121;-58
2022/06/17 12:17:13;;;;;;;2.03;0.57;;;;;;;;;;5140185;27;20043;-59
2022/06/17 12:19:38;;;;;;;10.02;0.90;;;;;;;;;;5143665;27;20639;-60
2022/06/17 12:22:07;;;;;;;1.90;0.90;;;;;;;;;;5138758;27;20058;-52
2022/06/17 12:24:47;;;;;;;8.07;1.70;;;;;;;;;;5118612;27;20054;-56
2022/06/17 12:27:12;;;;;;;;;;;;;;;;;;5143504;27;20100;-52
2022/06/17 12:29:58;;;;;;;3.05;0.95;;;;;;;;;;5139333;27;19997;-55
2022/06/17 12:32:28;;;;;;;4.60;1.35;;;;;;;;;;5137976;27;20050;-45
2022/06/17 12:35:14;;;;;;;2.80;1.25;;;;;;;;;;5139596;27;20511;-58
2022/06/17 12:37:44;;;;;;;1.15;0.60;;;;;;;;;;5135739;27;20196;-56
2022/06/17 12:40:09;;;;;;;1.88;0.65;;;;;;;;;;5120507;27;20051;-54
2022/06/17 12:42:53;;;;;;;16.23;1.50;;;;;;;;;;5135442;27;20545;-55
2022/06/17 12:45:23;;;;;;;2.35;0.75;;;;;;;;;;5135049;27;20546;-55
2022/06/17 12:47:49;;;;;;;0.47;0.20;;;;;;;;;;5136678;27;20043;-55
2022/06/17 12:53:22;;;;;;;5.82;1.80;;;;;;;;;;5134195;27;20102;-54
2022/06/17 12:55:47;;;;;;;4.60;1.08;;;;;;;;;;5140919;27;20054;-52
2022/06/17 12:58:33;;;;;;;1.00;0.65;;;;;;;;;;5137757;27;20058;-55
2022/06/17 13:01:18;;;;;;;9.75;1.58;;;;;;;;;;5132774;27;20129;-53
2022/06/17 13:03:50;;;;;;;5.43;1.42;;;;;;;;;;5136657;27;20125;-53
2022/06/17 13:06:35;;;;;;;10.23;1.42;;;;;;;;;;5142688;27;20065;-51
2022/06/17 13:09:00;;;;;;;2.75;1.17;;;;;;;;;;5140409;27;20058;-52
2022/06/17 13:11:29;;;;;;;2.42;0.88;;;;;;;;;;5136089;27;20063;-53
2022/06/17 13:14:00;;;;;;;0.95;0.55;;;;;;;;;;5135135;27;20752;-51
2022/06/17 13:16:35;;;;;;;3.47;1.13;;;;;;;;;;5139213;27;20179;-54
2022/06/17 13:19:22;;;;;;;6.65;0.77;;;;;;;;;;5135014;27;20047;-53
2022/06/17 13:22:06;;;;;;;1.35;1.00;;;;;;;;;;5139405;27;20062;-48
2022/06/17 13:24:31;;;;;;;2.67;0.50;;;;;;;;;;5138754;27;20057;-52
2022/06/17 13:27:05;;;;;;;3.03;1.05;;;;;;;;;;5135190;27;20117;-54
2022/06/17 13:29:34;;;;;;;7.40;1.05;;;;;;;;;;5139811;27;20517;-52
2022/06/17 13:32:03;;;;;;;1.85;0.35;;;;;;;;;;5135711;27;20039;-52
2022/06/17 13:34:41;;;;;;;1.17;0.60;;;;;;;;;;5136701;27;20043;-51
2022/06/17 13:37:12;;;;;;;11.52;1.30;;;;;;;;;;5136446;27;20074;-54
2022/06/17 13:39:40;;;;;;;0.95;0.80;;;;;;;;;;5138990;27;20125;-51
2022/06/17 13:42:07;;;;;;;4.00;0.70;;;;;;;;;;5137274;27;20050;-52
2022/06/17 13:44:35;;;;;;;0.85;0.30;;;;;;;;;;5137513;27;20077;-54
2022/06/17 13:47:04;;;;;;;0.93;0.73;;;;;;;;;;5136710;27;20066;-50
2022/06/17 13:49:44;;;;;;;2.15;1.35;;;;;;;;;;5137584;27;20125;-52
2022/06/17 13:52:21;;;;;;;2.17;0.70;;;;;;;;;;5135977;27;20046;-54
2022/06/17 13:54:52;;;;;;;0.52;0.40;;;;;;;;;;5137716;27;20731;-53
2022/06/17 13:57:22;;;;;;;1.52;0.60;;;;;;;;;;5135931;27;20074;-53
2022/06/17 13:59:54;;;;;;;2.67;0.90;;;;;;;;;;5133543;27;20026;-54
2022/06/17 14:02:28;;;;;;;1.10;0.82;;;;;;;;;;5138418;27;20038;-54
2022/06/17 14:05:00;;;;;;;0.30;0.20;;;;;;;;;;5136223;27;20136;-53
2022/06/17 14:07:43;;;;;;;2.05;0.85;;;;;;;;;;5136824;27;20073;-51
2022/06/17 14:10:35;;;;;;;2.58;0.85;;;;;;;;;;5134298;27;20047;-51
2022/06/17 14:13:13;;;;;;;5.30;0.75;;;;;;;;;;5101652;27;20443;-56
2022/06/17 14:15:45;;;;;;;2.60;0.45;;;;;;;;;;5135130;27;20458;-47
2022/06/17 14:18:18;;;;;;;0.88;0.20;;;;;;;;;;5138493;27;20493;-53
2022/06/17 14:20:45;;;;;;;2.08;0.60;;;;;;;;;;5136272;27;20154;-51
2022/06/17 14:23:16;;;;;;;2.60;1.08;;;;;;;;;;5137294;27;20103;-49
2022/06/17 14:25:46;;;;;;;2.17;0.60;;;;;;;;;;5137441;27;20058;-52
2022/06/17 14:28:31;;;;;;;10.55;1.58;;;;;;;;;;5136035;27;20061;-48
2022/06/17 14:31:16;;;;;;;1.58;0.50;;;;;;;;;;5135358;27;20069;-49
2022/06/17 14:33:56;;;;;;;1.15;0.65;;;;;;;;;;5139856;27;20434;-48
2022/06/17 14:36:41;;;;;;;1.20;0.38;;;;;;;;;;5135787;27;20038;-53
2022/06/17 14:39:11;;;;;;;4.05;0.60;;;;;;;;;;5106366;27;20069;-49
2022/06/17 14:44:28;;;;;;;2.88;0.98;;;;;;;;;;5138893;27;20057;-47
2022/06/17 14:47:12;;;;;;;2.42;1.02;;;;;;;;;;5136618;27;20046;-53
2022/06/17 14:49:38;;;;;;;3.17;0.75;;;;;;;;;;5137920;27;20030;-53
2022/06/17 14:52:19;;;;;;;1.58;0.70;;;;;;;;;;5137234;27;20200;-56
2022/06/17 14:54:55;;;;;;;0.75;0.40;;;;;;;;;;5134033;27;20453;-57
2022/06/17 14:57:23;;;;;;;2.65;0.57;;;;;;;;;;5140631;27;20309;-56
2022/06/17 14:59:49;;;;;;;0.77;0.38;;;;;;;;;;5139672;27;20046;-54
2022/06/17 15:02:20;;;;;;;1.77;0.38;;;;;;;;;;5138803;27;20042;-56
2022/06/17 15:04:49;;;;;;;0.95;0.65;;;;;;;;;;5135837;27;20043;-56
2022/06/17 15:07:20;;;;;;;0.95;0.65;;;;;;;;;;5136860;27;20043;-57
2022/06/17 15:09:51;;;;;;;1.15;0.47;;;;;;;;;;5136903;27;20043;-57